createdAt,value
2019-02-02T00:01:17.095Z,94.37
2019-02-02T00:03:46.066Z,83.07
2019-02-02T00:06:15.705Z,101.83
2019-02-02T00:08:44.764Z,101.97
2019-02-02T00:11:13.798Z,95.37
2019-02-02T00:13:43.634Z,88.70
2019-02-02T00:16:12.722Z,82.77
2019-02-02T00:18:41.894Z,97.27
2019-02-02T00:21:11.215Z,85.77
2019-02-02T00:23:40.234Z,85.87
2019-02-02T00:26:09.250Z,81.63
2019-02-02T00:28:38.501Z,99.20
2019-02-02T00:31:07.403Z,100.70
2019-02-02T00:33:36.486Z,93.20
2019-02-02T00:36:06.724Z,90.47
2019-02-02T00:38:36.858Z,89.93
2019-02-02T00:41:07.086Z,81.90
2019-02-02T00:43:38.559Z,84.87
2019-02-02T00:46:07.482Z,89.60
2019-02-02T00:48:37.805Z,85.93
2019-02-02T00:51:06.810Z,90.83
2019-02-02T00:53:35.907Z,86.37
2019-02-02T00:56:05.318Z,91.33
2019-02-02T00:58:34.116Z,85.53
2019-02-02T01:01:22.225Z,92.23
2019-02-02T01:03:51.186Z,90.67
2019-02-02T01:06:56.879Z,95.43
2019-02-02T01:12:55.069Z,94.93
2019-02-02T01:21:59.598Z,103.83
2019-02-02T01:24:32.211Z,98.50
2019-02-02T01:29:55.288Z,95.97
2019-02-02T01:32:26.633Z,99.50
2019-02-02T01:34:57.213Z,101.73
2019-02-02T01:37:30.389Z,87.33
2019-02-02T01:40:01.008Z,93.93
2019-02-02T01:42:31.613Z,92.83
2019-02-02T01:45:02.243Z,90.17
2019-02-02T01:47:58.594Z,100.73
2019-02-02T01:50:38.059Z,101.37
2019-02-02T01:58:27.155Z,80.53
2019-02-02T02:11:43.719Z,94.70
2019-02-02T02:14:17.472Z,105.60
2019-02-02T02:20:51.054Z,86.00
2019-02-02T02:23:26.747Z,88.40
2019-02-02T02:26:01.217Z,85.47
2019-02-02T02:28:34.549Z,88.23
2019-02-02T02:31:09.238Z,82.57
2019-02-02T02:37:48.375Z,83.17
2019-02-02T02:41:02.481Z,79.73
2019-02-02T02:43:52.613Z,80.97
2019-02-02T02:46:51.973Z,87.97
2019-02-02T02:49:59.853Z,85.03
2019-02-02T02:52:42.039Z,89.53
2019-02-02T02:55:40.581Z,81.97
2019-02-02T02:58:11.554Z,78.53
2019-02-02T03:00:41.989Z,81.80
2019-02-02T03:03:13.915Z,88.13
2019-02-02T03:05:50.523Z,80.73
2019-02-02T03:08:25.993Z,82.20
2019-02-02T03:10:55.654Z,89.73
2019-02-02T03:13:26.777Z,80.10
2019-02-02T03:15:57.264Z,79.60
2019-02-02T03:18:30.127Z,88.10
2019-02-02T03:21:00.024Z,91.03
2019-02-02T03:23:32.552Z,82.00
2019-02-02T03:26:03.276Z,87.83
2019-02-02T03:28:36.603Z,86.23
2019-02-02T03:31:09.793Z,85.00
2019-02-02T03:33:42.990Z,86.90
2019-02-02T03:36:13.174Z,87.57
2019-02-02T03:42:26.712Z,85.73
2019-02-02T03:45:01.619Z,87.50
2019-02-02T03:47:33.807Z,80.80
2019-02-02T03:50:08.260Z,85.73
2019-02-02T03:52:38.787Z,78.93
2019-02-02T03:55:31.556Z,83.57
2019-02-02T03:58:04.462Z,79.20
2019-02-02T04:00:36.986Z,82.97
2019-02-02T04:03:08.397Z,84.73
2019-02-02T04:05:38.415Z,78.87
2019-02-02T04:08:08.979Z,81.80
2019-02-02T04:10:39.374Z,70.13
2019-02-02T04:13:11.422Z,82.73
2019-02-02T04:15:44.951Z,88.47
2019-02-02T04:18:16.908Z,77.97
2019-02-02T04:20:51.349Z,84.80
2019-02-02T04:23:21.979Z,85.00
2019-02-02T04:25:54.400Z,81.47
2019-02-02T04:28:27.652Z,82.33
2019-02-02T04:30:58.813Z,90.17
2019-02-02T04:33:36.291Z,87.07
2019-02-02T04:36:13.831Z,86.57
2019-02-02T04:38:47.354Z,87.20
2019-02-02T04:41:17.539Z,83.07
2019-02-02T04:47:32.437Z,83.50
2019-02-02T04:50:04.857Z,88.07
2019-02-02T04:52:37.804Z,84.80
2019-02-02T04:55:10.730Z,79.83
2019-02-02T04:57:41.240Z,83.23
2019-02-02T05:00:34.323Z,83.73
2019-02-02T05:03:08.567Z,77.30
2019-02-02T05:05:42.504Z,78.07
2019-02-02T05:08:12.664Z,84.90
2019-02-02T05:10:43.158Z,83.93
2019-02-02T05:13:19.249Z,79.27
2019-02-02T05:15:51.599Z,84.80
2019-02-02T05:18:29.034Z,80.97
2019-02-02T05:21:02.084Z,82.10
2019-02-02T05:23:32.287Z,84.40
2019-02-02T05:26:07.096Z,84.33
2019-02-02T05:29:08.656Z,83.27
2019-02-02T05:31:39.109Z,82.60
2019-02-02T05:37:30.078Z,84.40
2019-02-02T05:40:00.346Z,87.27
2019-02-02T05:42:34.129Z,85.60
2019-02-02T05:45:09.363Z,80.03
2019-02-02T05:47:40.235Z,91.00
2019-02-02T05:50:20.162Z,81.67
2019-02-02T05:56:17.258Z,83.40
2019-02-02T06:02:36.255Z,80.43
2019-02-02T06:05:25.328Z,83.50
2019-02-02T06:07:55.894Z,82.57
2019-02-02T06:10:26.440Z,87.33
2019-02-02T06:13:01.819Z,83.70
2019-02-02T06:15:32.005Z,84.10
2019-02-02T06:18:06.918Z,92.93
2019-02-02T06:20:41.795Z,97.20
2019-02-02T06:23:12.979Z,105.97
2019-02-02T06:25:43.531Z,98.43
2019-02-02T06:28:20.783Z,100.63
2019-02-02T06:30:56.005Z,102.80
2019-02-02T06:33:40.577Z,104.93
2019-02-02T06:39:28.687Z,110.90
2019-02-02T06:42:02.046Z,102.73
2019-02-02T06:44:38.431Z,109.33
2019-02-02T06:47:12.147Z,103.93
2019-02-02T06:52:43.993Z,114.53
2019-02-02T06:55:21.530Z,113.90
2019-02-02T06:57:58.476Z,111.43
2019-02-02T07:00:43.071Z,108.87
2019-02-02T07:03:15.587Z,117.60
2019-02-02T07:09:45.828Z,109.67
2019-02-02T07:12:22.814Z,102.23
2019-02-02T07:15:11.161Z,116.77
2019-02-02T07:18:04.981Z,106.97
2019-02-02T07:20:36.312Z,108.10
2019-02-02T07:23:09.333Z,110.40
2019-02-02T07:29:21.720Z,109.00
2019-02-02T07:31:59.970Z,115.93
2019-02-02T07:46:01.094Z,118.27
2019-02-02T07:52:08.863Z,109.13
2019-02-02T07:59:24.359Z,115.10
2019-02-02T08:05:48.904Z,113.00
2019-02-02T08:11:19.672Z,111.27
2019-02-02T08:13:48.534Z,118.00
2019-02-02T08:16:17.482Z,113.33
2019-02-02T08:18:46.273Z,114.83
2019-02-02T08:21:15.243Z,125.17
2019-02-02T08:23:44.032Z,117.67
2019-02-02T08:26:12.808Z,113.93
2019-02-02T08:28:41.726Z,132.17
2019-02-02T08:31:10.586Z,129.67
2019-02-02T08:33:39.744Z,109.80
2019-02-02T08:36:08.695Z,122.93
2019-02-02T08:38:37.807Z,123.00
2019-02-02T08:41:06.709Z,125.77
2019-02-02T08:43:35.540Z,130.33
2019-02-02T08:46:04.624Z,119.90
2019-02-02T08:48:33.535Z,125.20
2019-02-02T08:51:02.414Z,133.63
2019-02-02T08:53:31.215Z,123.57
2019-02-02T08:56:00.050Z,125.07
2019-02-02T08:58:28.919Z,123.43
2019-02-02T09:01:04.261Z,124.97
2019-02-02T09:03:28.778Z,122.70
2019-02-02T09:05:57.930Z,119.60
2019-02-02T09:08:26.856Z,126.07
2019-02-02T09:10:55.965Z,121.47
2019-02-02T09:13:25.150Z,118.43
2019-02-02T09:15:54.043Z,122.90
2019-02-02T09:18:23.280Z,117.30
2019-02-02T09:20:52.156Z,129.20
2019-02-02T09:23:21.076Z,138.10
2019-02-02T09:25:49.928Z,123.37
2019-02-02T09:28:18.753Z,122.10
2019-02-02T09:30:47.692Z,124.33
2019-02-02T09:33:16.611Z,123.87
2019-02-02T09:35:45.408Z,127.67
2019-02-02T09:38:14.306Z,134.37
2019-02-02T09:40:43.179Z,130.53
2019-02-02T09:43:12.092Z,128.97
2019-02-02T09:45:41.306Z,135.67
2019-02-02T09:48:10.471Z,137.30
2019-02-02T09:50:39.443Z,136.40
2019-02-02T09:53:08.623Z,125.07
2019-02-02T09:55:37.813Z,134.20
2019-02-02T09:58:09.927Z,120.27
2019-02-02T10:00:38.945Z,135.97
2019-02-02T10:03:07.871Z,126.03
2019-02-02T10:05:36.737Z,140.73
2019-02-02T10:08:05.753Z,128.53
2019-02-02T10:10:35.294Z,134.63
2019-02-02T10:13:05.443Z,136.50
2019-02-02T10:15:34.378Z,126.20
2019-02-02T10:18:03.499Z,126.67
2019-02-02T10:20:32.805Z,130.03
2019-02-02T10:23:02.368Z,128.57
2019-02-02T10:25:32.410Z,128.30
2019-02-02T10:28:01.778Z,117.97
2019-02-02T10:30:35.777Z,133.00
2019-02-02T10:33:05.156Z,127.30
2019-02-02T10:35:34.136Z,134.23
2019-02-02T10:38:03.106Z,123.83
2019-02-02T10:40:32.056Z,137.07
2019-02-02T10:43:01.014Z,132.33
2019-02-02T10:45:29.918Z,133.37
2019-02-02T10:47:58.890Z,141.87
2019-02-02T10:50:28.061Z,132.30
2019-02-02T10:52:57.057Z,134.03
2019-02-02T10:55:26.761Z,136.73
2019-02-02T10:57:56.238Z,146.47
2019-02-02T11:00:27.369Z,127.93
2019-02-02T11:02:56.380Z,129.07
2019-02-02T11:05:26.193Z,129.10
2019-02-02T11:07:55.961Z,130.37
2019-02-02T11:10:26.829Z,120.77
2019-02-02T11:12:56.330Z,133.90
2019-02-02T11:15:25.725Z,143.30
2019-02-02T11:17:55.446Z,128.33
2019-02-02T11:20:27.839Z,135.37
2019-02-02T11:22:57.415Z,134.87
2019-02-02T11:25:26.489Z,137.80
2019-02-02T11:27:55.904Z,144.07
2019-02-02T11:30:26.192Z,132.77
2019-02-02T11:32:55.245Z,135.13
2019-02-02T11:35:24.685Z,122.33
2019-02-02T11:37:54.159Z,139.20
2019-02-02T11:40:25.019Z,121.63
2019-02-02T11:42:54.126Z,109.03
2019-02-02T11:45:23.222Z,118.40
2019-02-02T11:47:52.157Z,134.27
2019-02-02T11:50:21.178Z,133.00
2019-02-02T11:52:50.163Z,139.23
2019-02-02T11:55:21.022Z,138.43
2019-02-02T11:57:50.243Z,145.27
2019-02-02T12:00:21.986Z,146.60
2019-02-02T12:02:50.911Z,137.87
2019-02-02T12:05:20.235Z,145.23
2019-02-02T12:07:49.746Z,141.87
2019-02-02T12:10:20.033Z,148.23
2019-02-02T12:12:49.282Z,139.93
2019-02-02T12:15:18.760Z,145.03
2019-02-02T12:17:48.051Z,143.43
2019-02-02T12:20:17.956Z,136.20
2019-02-02T12:22:47.173Z,141.10
2019-02-02T12:25:16.249Z,129.67
2019-02-02T12:27:45.121Z,135.83
2019-02-02T12:30:19.736Z,137.23
2019-02-02T12:32:48.606Z,131.07
2019-02-02T12:35:19.526Z,131.43
2019-02-02T12:37:48.767Z,139.40
2019-02-02T12:40:18.472Z,128.13
2019-02-02T12:42:47.797Z,130.57
2019-02-02T12:45:19.687Z,135.50
2019-02-02T12:47:48.877Z,137.77
2019-02-02T12:50:17.845Z,128.47
2019-02-02T12:52:46.858Z,147.90
2019-02-02T12:55:15.684Z,133.77
2019-02-02T12:57:44.632Z,137.20
2019-02-02T13:00:16.413Z,129.57
2019-02-02T13:02:45.899Z,132.30
2019-02-02T13:05:16.132Z,140.73
2019-02-02T13:07:45.013Z,137.30
2019-02-02T13:10:24.462Z,147.80
2019-02-02T13:12:52.377Z,135.53
2019-02-02T13:15:21.343Z,139.40
2019-02-02T13:17:50.314Z,128.73
2019-02-02T13:20:19.379Z,133.47
2019-02-02T13:22:48.401Z,144.23
2019-02-02T13:25:18.805Z,125.87
2019-02-02T13:27:47.954Z,127.03
2019-02-02T13:30:19.577Z,125.80
2019-02-02T13:32:49.819Z,124.90
2019-02-02T13:35:19.488Z,131.70
2019-02-02T13:37:48.672Z,132.47
2019-02-02T13:40:18.847Z,123.30
2019-02-02T13:42:47.754Z,143.33
2019-02-02T13:45:18.246Z,135.03
2019-02-02T13:47:47.100Z,125.53
2019-02-02T13:50:16.954Z,129.23
2019-02-02T13:52:46.118Z,135.93
2019-02-02T13:55:15.047Z,139.63
2019-02-02T13:57:44.309Z,133.77
2019-02-02T14:00:25.434Z,133.70
2019-02-02T14:03:02.183Z,134.40
2019-02-02T14:05:25.147Z,149.37
2019-02-02T14:07:55.452Z,132.27
2019-02-02T14:10:26.189Z,135.03
2019-02-02T14:12:55.085Z,124.77
2019-02-02T14:15:24.100Z,126.97
2019-02-02T14:17:53.004Z,143.97
2019-02-02T14:20:22.203Z,132.23
2019-02-02T14:22:51.402Z,132.13
2019-02-02T14:25:20.277Z,135.63
2019-02-02T14:27:49.343Z,132.07
2019-02-02T14:30:20.037Z,117.40
2019-02-02T14:32:49.249Z,132.83
2019-02-02T14:35:19.370Z,129.17
2019-02-02T14:37:48.248Z,129.37
2019-02-02T14:40:18.347Z,134.00
2019-02-02T14:42:47.296Z,136.10
2019-02-02T14:45:17.747Z,128.47
2019-02-02T14:47:46.686Z,140.77
2019-02-02T14:50:18.864Z,132.73
2019-02-02T14:52:48.243Z,131.03
2019-02-02T14:55:19.202Z,127.67
2019-02-02T14:57:48.687Z,129.77
2019-02-02T15:00:19.691Z,150.60
2019-02-02T15:02:48.648Z,145.20
2019-02-02T15:05:19.860Z,139.13
2019-02-02T15:07:48.815Z,149.20
2019-02-02T15:10:17.820Z,149.70
2019-02-02T15:12:46.770Z,141.00
2019-02-02T15:15:15.916Z,154.10
2019-02-02T15:17:45.071Z,147.43
2019-02-02T15:20:22.122Z,142.70
2019-02-02T15:22:50.308Z,138.67
2019-02-02T15:25:19.575Z,139.77
2019-02-02T15:27:49.038Z,138.10
2019-02-02T15:30:18.865Z,132.83
2019-02-02T15:32:47.891Z,150.40
2019-02-02T15:35:16.831Z,146.37
2019-02-02T15:37:45.928Z,140.70
2019-02-02T15:40:16.269Z,144.63
2019-02-02T15:42:45.165Z,143.83
2019-02-02T15:45:16.193Z,144.53
2019-02-02T15:47:45.245Z,148.20
2019-02-02T15:50:15.924Z,138.50
2019-02-02T15:52:45.563Z,152.67
2019-02-02T15:55:21.780Z,143.83
2019-02-02T15:57:51.048Z,156.40
2019-02-02T16:00:25.167Z,147.90
2019-02-02T16:02:54.281Z,159.67
2019-02-02T16:05:23.385Z,152.87
2019-02-02T16:07:52.491Z,177.03
2019-02-02T16:10:23.498Z,168.67
2019-02-02T16:12:52.627Z,167.23
2019-02-02T16:15:21.912Z,143.30
2019-02-02T16:17:50.850Z,149.03
2019-02-02T16:20:21.768Z,147.57
2019-02-02T16:22:50.791Z,135.43
2019-02-02T16:25:19.618Z,143.77
2019-02-02T16:27:48.559Z,153.03
2019-02-02T16:30:20.119Z,146.47
2019-02-02T16:32:49.089Z,143.70
2019-02-02T16:35:18.172Z,135.10
2019-02-02T16:37:47.211Z,139.73
2019-02-02T16:40:18.063Z,149.87
2019-02-02T16:42:47.282Z,152.40
2019-02-02T16:45:17.549Z,151.57
2019-02-02T16:47:46.758Z,141.73
2019-02-02T16:50:17.441Z,138.47
2019-02-02T16:52:46.744Z,146.33
2019-02-02T16:55:15.803Z,144.43
2019-02-02T16:57:44.710Z,147.73
2019-02-02T17:00:26.560Z,142.17
2019-02-02T17:02:55.828Z,160.70
2019-02-02T17:05:24.752Z,153.67
2019-02-02T17:07:54.066Z,141.50
2019-02-02T17:10:25.300Z,152.37
2019-02-02T17:12:54.675Z,145.90
2019-02-02T17:15:23.938Z,146.73
2019-02-02T17:17:52.919Z,145.53
2019-02-02T17:20:36.059Z,147.60
2019-02-02T17:23:05.582Z,145.50
2019-02-02T17:25:35.240Z,142.17
2019-02-02T17:28:05.059Z,144.07
2019-02-02T17:30:34.018Z,135.20
2019-02-02T17:33:06.298Z,144.73
2019-02-02T17:35:35.579Z,144.27
2019-02-02T17:38:06.294Z,152.10
2019-02-02T17:40:35.156Z,136.40
2019-02-02T17:43:06.133Z,147.57
2019-02-02T17:45:35.851Z,140.97
2019-02-02T17:48:06.125Z,141.53
2019-02-02T17:50:36.328Z,140.27
2019-02-02T17:53:05.900Z,151.23
2019-02-02T17:55:35.162Z,133.97
2019-02-02T17:58:04.217Z,142.50
2019-02-02T18:00:43.341Z,157.70
2019-02-02T18:03:12.288Z,156.77
2019-02-02T18:05:41.423Z,143.57
2019-02-02T18:08:10.449Z,141.17
2019-02-02T18:10:39.295Z,148.93
2019-02-02T18:13:08.730Z,135.87
2019-02-02T18:15:37.545Z,144.90
2019-02-02T18:18:06.621Z,145.83
2019-02-02T18:20:35.795Z,149.23
2019-02-02T18:23:04.778Z,137.03
2019-02-02T18:25:33.655Z,144.33
2019-02-02T18:28:02.872Z,153.80
2019-02-02T18:30:32.049Z,152.10
2019-02-02T18:33:01.391Z,145.57
2019-02-02T18:35:30.318Z,137.00
2019-02-02T18:37:59.308Z,142.53
2019-02-02T18:40:28.373Z,149.17
2019-02-02T18:42:57.556Z,149.73
2019-02-02T18:45:27.322Z,150.90
2019-02-02T18:47:57.842Z,144.60
2019-02-02T18:50:26.714Z,166.67
2019-02-02T18:52:55.717Z,164.57
2019-02-02T18:55:39.525Z,172.37
2019-02-02T18:58:08.763Z,150.20
2019-02-02T19:00:37.623Z,146.27
2019-02-02T19:03:07.264Z,153.30
2019-02-02T19:05:36.184Z,147.30
2019-02-02T19:08:05.716Z,141.77
2019-02-02T19:10:36.554Z,144.63
2019-02-02T19:13:05.883Z,142.77
2019-02-02T19:15:35.000Z,141.03
2019-02-02T19:18:04.566Z,136.10
2019-02-02T19:20:33.524Z,153.30
2019-02-02T19:23:02.480Z,146.50
2019-02-02T19:25:31.415Z,143.63
2019-02-02T19:28:00.375Z,146.03
2019-02-02T19:30:31.220Z,145.33
2019-02-02T19:33:00.853Z,140.53
2019-02-02T19:35:29.851Z,153.13
2019-02-02T19:37:58.824Z,133.47
2019-02-02T19:40:27.728Z,143.67
2019-02-02T19:42:56.648Z,136.20
2019-02-02T19:45:26.057Z,136.23
2019-02-02T19:47:54.950Z,139.03
2019-02-02T19:50:25.795Z,147.80
2019-02-02T19:52:54.841Z,138.23
2019-02-02T19:55:23.773Z,143.03
2019-02-02T19:57:53.014Z,141.00
2019-02-02T20:00:24.460Z,132.73
2019-02-02T20:02:53.888Z,136.33
2019-02-02T20:05:28.655Z,135.40
2019-02-02T20:07:55.958Z,137.90
2019-02-02T20:10:25.318Z,135.77
2019-02-02T20:12:54.481Z,140.83
2019-02-02T20:15:24.848Z,145.17
2019-02-02T20:17:53.777Z,142.83
2019-02-02T20:20:24.319Z,138.37
2019-02-02T20:22:53.806Z,130.77
2019-02-02T20:25:22.744Z,140.03
2019-02-02T20:27:51.613Z,131.00
2019-02-02T20:30:22.508Z,134.17
2019-02-02T20:32:52.269Z,144.80
2019-02-02T20:35:21.441Z,148.27
2019-02-02T20:37:50.675Z,141.53
2019-02-02T20:40:20.987Z,137.13
2019-02-02T20:42:50.050Z,142.63
2019-02-02T20:45:21.241Z,148.50
2019-02-02T20:47:50.327Z,143.67
2019-02-02T20:50:19.440Z,137.10
2019-02-02T20:52:48.544Z,131.40
2019-02-02T20:55:20.364Z,131.30
2019-02-02T20:57:49.962Z,127.17
2019-02-02T21:00:20.989Z,139.03
2019-02-02T21:02:50.267Z,126.80
2019-02-02T21:05:19.493Z,120.63
2019-02-02T21:07:48.287Z,123.73
2019-02-02T21:10:18.894Z,139.80
2019-02-02T21:12:47.772Z,130.17
2019-02-02T21:15:16.877Z,130.37
2019-02-02T21:17:45.839Z,131.77
2019-02-02T21:20:19.950Z,124.13
2019-02-02T21:22:49.536Z,127.97
2019-02-02T21:25:18.944Z,128.93
2019-02-02T21:27:47.745Z,133.80
2019-02-02T21:30:18.936Z,131.00
2019-02-02T21:32:47.940Z,141.17
2019-02-02T21:35:17.213Z,132.57
2019-02-02T21:37:46.404Z,132.33
2019-02-02T21:40:16.930Z,134.30
2019-02-02T21:42:45.828Z,129.27
2019-02-02T21:45:15.060Z,129.40
2019-02-02T21:47:44.374Z,126.40
2019-02-02T21:50:15.883Z,127.33
2019-02-02T21:52:44.915Z,124.83
2019-02-02T21:55:15.757Z,126.63
2019-02-02T21:57:45.103Z,117.57
2019-02-02T22:00:25.252Z,112.50
2019-02-02T22:02:54.263Z,120.33
2019-02-02T22:05:23.099Z,114.13
2019-02-02T22:07:52.047Z,119.00
2019-02-02T22:10:21.599Z,130.03
2019-02-02T22:12:52.932Z,112.33
2019-02-02T22:15:22.490Z,124.47
2019-02-02T22:17:51.499Z,123.27
2019-02-02T22:20:20.795Z,121.90
2019-02-02T22:22:49.989Z,114.77
2019-02-02T22:25:24.330Z,112.37
2019-02-02T22:27:53.215Z,120.90
2019-02-02T22:30:24.653Z,122.87
2019-02-02T22:32:53.610Z,112.13
2019-02-02T22:35:23.129Z,118.87
2019-02-02T22:37:52.139Z,122.07
2019-02-02T22:40:22.603Z,115.47
2019-02-02T22:42:51.555Z,118.90
2019-02-02T22:45:21.132Z,121.00
2019-02-02T22:47:50.463Z,117.30
2019-02-02T22:50:20.997Z,112.10
2019-02-02T22:52:50.324Z,109.10
2019-02-02T22:55:19.809Z,118.77
2019-02-02T22:57:48.771Z,118.80
2019-02-02T23:01:00.713Z,112.40
2019-02-02T23:03:35.537Z,107.67
2019-02-02T23:06:40.178Z,114.83
2019-02-02T23:09:41.123Z,109.43
2019-02-02T23:12:18.161Z,123.17
2019-02-02T23:15:33.889Z,114.50
2019-02-02T23:18:04.132Z,114.07
2019-02-02T23:20:33.008Z,117.53
2019-02-02T23:23:02.102Z,106.40
2019-02-02T23:25:30.935Z,117.20
2019-02-02T23:28:00.410Z,112.13
2019-02-02T23:30:29.884Z,115.53
2019-02-02T23:32:59.187Z,118.40
2019-02-02T23:35:28.223Z,115.20
2019-02-02T23:37:58.273Z,109.20
2019-02-02T23:40:27.474Z,112.90
2019-02-02T23:42:56.953Z,114.50
2019-02-02T23:45:26.758Z,117.87
2019-02-02T23:47:56.697Z,125.80
2019-02-02T23:50:26.707Z,112.97
2019-02-02T23:52:57.667Z,125.17
2019-02-02T23:55:27.783Z,120.77
2019-02-02T23:57:57.411Z,113.27
